Portada
METAR-TAF:

METAR-TAF

Aeropuertos :

Base Aérea de Armilla

Granada, España

latitud: 37-08N, longitud: 003-38-08W, altitud: 700 m

Observación

El informe se hizo hace 7 horas y 7 minutos, a las 13:00 UTC
Viento 3 kt con dirección variable
Temperatura 27°C
Humedad 26%
Presión 1023 hPa
Visibilidad 10 km o más
sin nubes por debajo de 1500 m y sin presencia de cumulonimbus.

METAR: LEGA 201300Z VRB03KT CAVOK 27/06 Q1023

Hora: 22:07 (20:07 UTC)

Pronóstico

El informe se hizo hace 9 horas y 7 minutos, a las 11:00 UTC
Pronóstico válido del 20 a las 12 UTC al 21 a las 12 UTC
Viento 2 kt con dirección variable
Visibilidad 10 km o más
sin nubes por debajo de 1500 m y sin presencia de cumulonimbus.
Temporalmente
del 20 a las 16 UTC al 20 a las 22 UTC
Viento 10 kt del sur

TAF: LEGA 201100Z 2012/2112 VRB02KT CAVOK TX29/2015Z TN10/2106Z TEMPO 2016/2022 19010KT

Observaciones y pronósticos meteorológicos de más de 4000 aeropuertos (mensajes METAR y TAF).

Los puntos amarillos y rojos representan las estaciones disponibles.

Ponga el ratón en el punto deseado para ver el nombre de la estación.

Haga clic para ver las observaciones y los pronósticos meteorológicos.

Para cambiar el mapa : haga clic en los botones verdes con una cruz de color negro para hacer un zoom, en el botón verde con un guión para alejar o en las flechas verdes para mapas adyacentes.


METAR-TAF: